createdAt,value
2018-12-30T00:02:09.958Z,0.10
2018-12-30T00:04:37.358Z,0.10
2018-12-30T00:07:05.167Z,0.00
2018-12-30T00:12:05.835Z,0.10
2018-12-30T00:14:33.277Z,0.20
2018-12-30T00:17:01.078Z,0.30
2018-12-30T00:19:28.483Z,0.30
2018-12-30T00:21:56.050Z,0.40
2018-12-30T00:24:23.874Z,0.40
2018-12-30T00:26:51.200Z,0.50
2018-12-30T00:29:18.652Z,0.50
2018-12-30T00:31:46.051Z,0.40
2018-12-30T00:34:13.449Z,0.50
2018-12-30T00:36:40.909Z,0.60
2018-12-30T00:39:08.310Z,0.70
2018-12-30T00:41:35.739Z,0.70
2018-12-30T00:44:03.590Z,0.70
2018-12-30T00:46:30.997Z,0.80
2018-12-30T00:48:58.407Z,0.70
2018-12-30T00:51:25.969Z,0.80
2018-12-30T00:53:53.347Z,0.80
2018-12-30T00:56:20.749Z,1.00
2018-12-30T00:58:48.212Z,0.90
2018-12-30T01:01:15.603Z,0.90
2018-12-30T01:03:43.102Z,1.00
2018-12-30T01:06:10.547Z,1.00
2018-12-30T01:08:37.970Z,1.00
2018-12-30T01:11:05.851Z,1.10
2018-12-30T01:13:33.627Z,1.10
2018-12-30T01:16:00.998Z,1.20
2018-12-30T01:18:28.606Z,1.30
2018-12-30T01:20:56.222Z,1.30
2018-12-30T01:23:23.627Z,1.20
2018-12-30T01:25:51.413Z,1.10
2018-12-30T01:28:18.877Z,1.10
2018-12-30T01:30:46.267Z,1.10
2018-12-30T01:33:13.660Z,1.10
2018-12-30T01:35:41.173Z,1.20
2018-12-30T01:38:08.565Z,1.20
2018-12-30T01:40:36.357Z,1.20
2018-12-30T01:43:03.877Z,1.20
2018-12-30T01:45:31.269Z,1.30
2018-12-30T01:47:58.675Z,1.20
2018-12-30T01:50:26.123Z,1.30
2018-12-30T01:52:53.518Z,1.30
2018-12-30T01:55:21.202Z,1.30
2018-12-30T01:57:48.636Z,1.30
2018-12-30T02:00:16.026Z,1.40
2018-12-30T02:02:43.418Z,1.40
2018-12-30T02:05:10.886Z,1.40
2018-12-30T02:07:38.277Z,1.40
2018-12-30T02:10:05.887Z,1.40
2018-12-30T02:12:33.592Z,1.40
2018-12-30T02:15:01.791Z,1.40
2018-12-30T02:17:29.190Z,1.40
2018-12-30T02:19:56.998Z,1.40
2018-12-30T02:22:24.396Z,1.30
2018-12-30T02:24:51.787Z,1.30
2018-12-30T02:27:19.386Z,1.30
2018-12-30T02:29:46.781Z,1.30
2018-12-30T02:32:14.165Z,1.30
2018-12-30T02:34:41.660Z,1.40
2018-12-30T02:37:09.357Z,1.30
2018-12-30T02:39:36.749Z,1.40
2018-12-30T02:42:05.450Z,1.40
2018-12-30T02:44:32.878Z,1.30
2018-12-30T02:47:00.268Z,1.40
2018-12-30T02:49:27.702Z,1.30
2018-12-30T02:51:55.095Z,1.30
2018-12-30T02:54:22.490Z,1.40
2018-12-30T02:56:50.359Z,1.40
2018-12-30T02:59:17.749Z,1.50
2018-12-30T03:01:45.141Z,1.50
2018-12-30T03:04:12.980Z,1.50
2018-12-30T03:06:40.288Z,1.50
2018-12-30T03:09:07.677Z,1.50
2018-12-30T03:11:35.106Z,1.50
2018-12-30T03:14:02.495Z,1.50
2018-12-30T03:16:29.928Z,1.50
2018-12-30T03:18:57.474Z,1.50
2018-12-30T03:21:24.859Z,1.50
2018-12-30T03:23:52.292Z,1.50
2018-12-30T03:26:19.935Z,1.60
2018-12-30T03:28:47.339Z,1.60
2018-12-30T03:31:14.757Z,1.60
2018-12-30T03:33:42.406Z,1.60
2018-12-30T03:36:09.810Z,1.60
2018-12-30T03:38:37.214Z,1.60
2018-12-30T03:41:04.675Z,1.70
2018-12-30T03:43:32.279Z,1.60
2018-12-30T03:45:59.670Z,1.60
2018-12-30T03:48:27.097Z,1.70
2018-12-30T03:50:54.489Z,1.70
2018-12-30T03:53:21.882Z,1.70
2018-12-30T03:55:49.498Z,1.70
2018-12-30T03:58:16.955Z,1.80
2018-12-30T04:00:44.358Z,1.80
2018-12-30T04:03:11.958Z,1.80
2018-12-30T04:05:39.354Z,1.80
2018-12-30T04:08:06.860Z,1.90
2018-12-30T04:10:34.302Z,1.80
2018-12-30T04:13:01.814Z,1.80
2018-12-30T04:15:29.811Z,1.90
2018-12-30T04:17:57.346Z,1.90
2018-12-30T04:20:24.727Z,2.00
2018-12-30T04:22:52.118Z,2.00
2018-12-30T04:25:19.640Z,2.00
2018-12-30T04:27:47.015Z,2.00
2018-12-30T04:30:14.390Z,2.00
2018-12-30T04:32:41.893Z,2.00
2018-12-30T04:35:09.294Z,2.00
2018-12-30T04:37:36.682Z,2.00
2018-12-30T04:40:05.117Z,2.00
2018-12-30T04:42:32.506Z,2.00
2018-12-30T04:44:59.878Z,2.10
2018-12-30T04:47:27.323Z,2.10
2018-12-30T04:49:54.715Z,2.10
2018-12-30T04:52:25.755Z,2.20
2018-12-30T04:54:51.532Z,2.20
2018-12-30T04:57:18.915Z,2.20
2018-12-30T04:59:46.292Z,2.20
2018-12-30T05:02:13.742Z,2.20
2018-12-30T05:04:41.128Z,2.20
2018-12-30T05:07:08.510Z,2.20
2018-12-30T05:09:35.950Z,2.20
2018-12-30T05:12:03.484Z,2.20
2018-12-30T05:14:31.147Z,2.20
2018-12-30T05:16:59.192Z,2.20
2018-12-30T05:19:26.576Z,2.20
2018-12-30T05:21:53.974Z,2.20
2018-12-30T05:24:21.414Z,2.30
2018-12-30T05:26:48.799Z,2.30
2018-12-30T05:29:16.208Z,2.30
2018-12-30T05:31:43.685Z,2.30
2018-12-30T05:34:11.080Z,2.30
2018-12-30T05:36:38.467Z,2.20
2018-12-30T05:39:06.219Z,2.30
2018-12-30T05:41:33.613Z,2.30
2018-12-30T05:44:00.991Z,2.30
2018-12-30T05:46:28.524Z,2.40
2018-12-30T05:48:55.934Z,2.40
2018-12-30T05:51:23.339Z,2.40
2018-12-30T05:53:50.920Z,2.40
2018-12-30T05:56:18.283Z,2.50
2018-12-30T05:58:45.674Z,2.50
2018-12-30T06:01:13.263Z,2.50
2018-12-30T06:03:40.654Z,2.50
2018-12-30T06:06:08.038Z,2.50
2018-12-30T06:08:35.695Z,2.50
2018-12-30T06:11:03.070Z,2.40
2018-12-30T06:13:30.734Z,2.40
2018-12-30T06:15:58.694Z,2.50
2018-12-30T06:18:26.092Z,2.40
2018-12-30T06:20:53.486Z,2.40
2018-12-30T06:23:20.934Z,2.40
2018-12-30T06:25:48.330Z,2.40
2018-12-30T06:28:15.730Z,2.40
2018-12-30T06:30:43.238Z,2.50
2018-12-30T06:33:10.634Z,2.40
2018-12-30T06:35:38.030Z,2.40
2018-12-30T06:38:05.478Z,2.40
2018-12-30T06:40:32.875Z,2.40
2018-12-30T06:43:00.277Z,2.40
2018-12-30T06:45:27.949Z,2.50
2018-12-30T06:47:55.340Z,2.50
2018-12-30T06:50:22.753Z,2.50
2018-12-30T06:52:57.387Z,2.50
2018-12-30T06:55:19.338Z,2.50
2018-12-30T06:57:46.735Z,2.50
2018-12-30T07:00:35.505Z,2.50
2018-12-30T07:03:03.210Z,2.40
2018-12-30T07:05:30.642Z,2.50
2018-12-30T07:07:58.130Z,2.50
2018-12-30T07:10:25.537Z,2.50
2018-12-30T07:12:52.866Z,2.50
2018-12-30T07:15:20.285Z,2.60
2018-12-30T07:17:48.026Z,2.40
2018-12-30T07:20:15.427Z,2.50
2018-12-30T07:22:43.108Z,2.50
2018-12-30T07:25:10.498Z,2.50
2018-12-30T07:27:37.902Z,2.50
2018-12-30T07:30:05.469Z,2.50
2018-12-30T07:32:32.830Z,2.50
2018-12-30T07:35:00.219Z,2.60
2018-12-30T07:37:27.643Z,2.60
2018-12-30T07:39:55.050Z,2.60
2018-12-30T07:42:22.437Z,2.60
2018-12-30T07:44:49.888Z,2.60
2018-12-30T07:47:17.266Z,2.60
2018-12-30T07:49:44.992Z,2.70
2018-12-30T07:52:12.571Z,2.60
2018-12-30T07:54:39.958Z,2.70
2018-12-30T07:57:07.339Z,2.70
2018-12-30T07:59:34.779Z,2.70
2018-12-30T08:02:02.339Z,2.70
2018-12-30T08:04:29.919Z,2.70
2018-12-30T08:06:57.355Z,2.70
2018-12-30T08:09:24.747Z,2.70
2018-12-30T08:11:52.030Z,2.70
2018-12-30T08:14:19.590Z,2.70
2018-12-30T08:16:46.990Z,2.70
2018-12-30T08:19:14.592Z,2.70
2018-12-30T08:21:42.442Z,2.70
2018-12-30T08:24:09.968Z,2.70
2018-12-30T08:26:37.504Z,2.80
2018-12-30T08:29:05.187Z,2.70
2018-12-30T08:31:32.739Z,2.70
2018-12-30T08:34:00.300Z,2.80
2018-12-30T08:36:27.853Z,2.70
2018-12-30T08:38:55.353Z,2.70
2018-12-30T08:41:22.848Z,2.80
2018-12-30T08:43:50.515Z,2.80
2018-12-30T08:46:17.996Z,2.90
2018-12-30T08:48:45.627Z,2.90
2018-12-30T08:54:52.015Z,2.90
2018-12-30T08:57:19.540Z,2.90
2018-12-30T08:59:47.051Z,2.90
2018-12-30T09:08:37.588Z,2.90
2018-12-30T09:11:04.993Z,2.90
2018-12-30T09:13:32.440Z,3.00
2018-12-30T09:36:54.638Z,3.10
2018-12-30T09:39:22.135Z,3.10
2018-12-30T09:41:49.887Z,3.00
2018-12-30T09:44:17.519Z,3.00
2018-12-30T09:46:44.924Z,3.00
2018-12-30T09:49:12.570Z,3.00
2018-12-30T09:51:40.205Z,2.90
2018-12-30T09:54:07.805Z,3.00
2018-12-30T09:56:35.192Z,3.00
2018-12-30T09:59:02.703Z,3.00
2018-12-30T10:01:30.366Z,3.00
2018-12-30T10:03:57.794Z,3.00
2018-12-30T10:06:25.214Z,3.10
2018-12-30T10:08:52.692Z,3.00
2018-12-30T10:11:20.207Z,3.00
2018-12-30T10:13:47.601Z,3.00
2018-12-30T10:16:15.180Z,2.90
2018-12-30T10:18:43.003Z,3.00
2018-12-30T10:21:10.447Z,3.00
2018-12-30T10:23:37.992Z,3.10
2018-12-30T10:26:05.414Z,3.00
2018-12-30T10:28:32.832Z,3.00
2018-12-30T10:31:00.302Z,3.10
2018-12-30T10:33:27.673Z,3.00
2018-12-30T10:35:55.087Z,3.00
2018-12-30T10:38:23.021Z,3.10
2018-12-30T10:40:50.419Z,3.00
2018-12-30T10:43:17.825Z,3.10
2018-12-30T10:45:45.412Z,3.20
2018-12-30T10:48:12.915Z,3.40
2018-12-30T10:50:40.321Z,3.50
2018-12-30T10:53:07.932Z,3.60
2018-12-30T10:55:35.360Z,3.60
2018-12-30T10:58:02.729Z,3.60
2018-12-30T11:00:30.263Z,3.60
2018-12-30T11:02:58.516Z,3.50
2018-12-30T11:05:25.912Z,3.60
2018-12-30T11:07:53.324Z,3.70
2018-12-30T11:10:20.780Z,3.70
2018-12-30T11:12:48.188Z,3.70
2018-12-30T11:15:15.571Z,3.70
2018-12-30T11:17:43.056Z,3.80
2018-12-30T11:20:10.441Z,3.80
2018-12-30T11:22:37.854Z,3.80
2018-12-30T11:25:05.593Z,3.80
2018-12-30T11:27:32.992Z,3.90
2018-12-30T11:30:00.375Z,3.90
2018-12-30T11:32:28.025Z,4.00
2018-12-30T11:34:55.380Z,4.00
2018-12-30T11:37:22.772Z,3.90
2018-12-30T11:39:50.431Z,3.80
2018-12-30T11:42:17.833Z,3.90
2018-12-30T11:44:45.227Z,3.80
2018-12-30T11:47:12.645Z,3.90
2018-12-30T11:49:40.035Z,3.90
2018-12-30T11:52:07.411Z,3.90
2018-12-30T11:54:34.847Z,3.90
2018-12-30T11:57:02.236Z,3.90
2018-12-30T11:59:29.686Z,3.90
2018-12-30T12:01:57.148Z,4.00
2018-12-30T12:04:25.086Z,4.10
2018-12-30T12:06:52.478Z,4.20
2018-12-30T12:09:19.875Z,4.20
2018-12-30T12:11:47.212Z,4.20
2018-12-30T12:14:14.623Z,4.30
2018-12-30T12:16:42.116Z,4.40
2018-12-30T12:19:09.514Z,4.50
2018-12-30T12:21:36.903Z,4.50
2018-12-30T12:24:04.575Z,4.60
2018-12-30T12:26:31.983Z,4.70
2018-12-30T12:29:00.060Z,4.70
2018-12-30T12:31:27.555Z,4.70
2018-12-30T12:33:54.948Z,4.80
2018-12-30T12:36:22.341Z,4.80
2018-12-30T12:38:49.779Z,4.80
2018-12-30T12:41:17.172Z,4.80
2018-12-30T12:43:44.575Z,4.80
2018-12-30T12:46:12.012Z,4.80
2018-12-30T12:48:39.459Z,4.90
2018-12-30T12:51:06.859Z,5.00
2018-12-30T12:53:34.279Z,5.10
2018-12-30T12:56:01.667Z,5.20
2018-12-30T12:58:29.093Z,5.30
2018-12-30T13:00:56.543Z,5.20
2018-12-30T13:03:24.531Z,5.20
2018-12-30T13:05:51.955Z,5.30
2018-12-30T13:08:19.359Z,5.20
2018-12-30T13:11:06.276Z,5.20
2018-12-30T13:13:33.678Z,5.10
2018-12-30T13:16:03.576Z,5.10
2018-12-30T13:18:30.308Z,5.10
2018-12-30T13:20:57.704Z,5.00
2018-12-30T13:23:25.090Z,5.10
2018-12-30T13:25:52.823Z,5.10
2018-12-30T13:28:20.220Z,5.10
2018-12-30T13:30:47.631Z,5.20
2018-12-30T13:33:15.100Z,5.20
2018-12-30T13:35:43.510Z,5.40
2018-12-30T13:38:11.171Z,5.30
2018-12-30T13:40:38.572Z,5.20
2018-12-30T13:43:05.958Z,5.10
2018-12-30T13:45:33.361Z,5.10
2018-12-30T13:48:01.004Z,5.10
2018-12-30T13:50:28.413Z,5.00
2018-12-30T13:52:55.787Z,5.00
2018-12-30T13:55:23.592Z,5.00
2018-12-30T13:57:50.980Z,5.10
2018-12-30T14:00:18.377Z,5.20
2018-12-30T14:02:45.895Z,5.20
2018-12-30T14:05:13.401Z,5.20
2018-12-30T14:07:40.807Z,5.20
2018-12-30T14:10:08.695Z,5.10
2018-12-30T14:12:36.257Z,5.00
2018-12-30T14:15:04.265Z,5.10
2018-12-30T14:17:31.675Z,5.10
2018-12-30T14:19:59.087Z,5.10
2018-12-30T14:22:26.491Z,5.20
2018-12-30T14:24:55.464Z,5.20
2018-12-30T14:27:23.203Z,5.20
2018-12-30T14:29:50.606Z,5.10
2018-12-30T14:32:18.398Z,5.00
2018-12-30T14:34:45.791Z,4.90
2018-12-30T14:37:13.175Z,4.90
2018-12-30T14:39:40.620Z,4.80
2018-12-30T14:42:08.018Z,4.80
2018-12-30T14:44:35.411Z,4.70
2018-12-30T14:47:02.837Z,4.60
2018-12-30T14:49:30.255Z,4.50
2018-12-30T14:51:57.638Z,4.50
2018-12-30T14:54:25.155Z,4.50
2018-12-30T14:56:52.547Z,4.50
2018-12-30T14:59:19.940Z,4.50
2018-12-30T15:01:47.420Z,4.40
2018-12-30T15:04:14.806Z,4.40
2018-12-30T15:06:42.356Z,4.40
2018-12-30T15:09:09.900Z,4.50
2018-12-30T15:11:37.445Z,4.40
2018-12-30T15:14:04.827Z,4.40
2018-12-30T15:16:32.263Z,4.30
2018-12-30T15:18:59.744Z,4.20
2018-12-30T15:21:27.069Z,4.20
2018-12-30T15:23:54.799Z,4.10
2018-12-30T15:26:22.197Z,4.10
2018-12-30T15:28:49.588Z,4.00
2018-12-30T15:31:17.062Z,4.00
2018-12-30T15:33:44.452Z,4.00
2018-12-30T15:36:11.847Z,4.00
2018-12-30T15:38:39.320Z,4.00
2018-12-30T15:41:06.718Z,4.10
2018-12-30T15:43:38.531Z,4.00
2018-12-30T15:46:06.054Z,4.00
2018-12-30T15:48:33.450Z,4.10
2018-12-30T15:51:00.849Z,4.10
2018-12-30T15:53:28.280Z,4.10
2018-12-30T15:55:55.660Z,4.00
2018-12-30T15:58:23.065Z,4.10
2018-12-30T16:00:50.589Z,4.30
2018-12-30T16:03:17.982Z,4.20
2018-12-30T16:05:45.383Z,4.10
2018-12-30T16:08:13.287Z,4.10
2018-12-30T16:10:40.695Z,4.10
2018-12-30T16:13:08.234Z,4.20
2018-12-30T16:15:35.674Z,4.30
2018-12-30T16:18:03.063Z,4.30
2018-12-30T16:20:30.466Z,4.30
2018-12-30T16:22:57.977Z,4.10
2018-12-30T16:25:27.236Z,4.10
2018-12-30T16:27:54.566Z,4.00
2018-12-30T16:30:22.211Z,3.90
2018-12-30T16:32:49.620Z,3.90
2018-12-30T16:35:18.704Z,3.90
2018-12-30T16:37:46.275Z,4.00
2018-12-30T16:40:13.663Z,3.90
2018-12-30T16:42:41.053Z,3.90
2018-12-30T16:45:08.518Z,4.00
2018-12-30T16:47:41.788Z,4.00
2018-12-30T16:50:05.713Z,4.00
2018-12-30T16:52:33.131Z,4.00
2018-12-30T16:55:00.573Z,4.00
2018-12-30T16:57:27.966Z,4.10
2018-12-30T16:59:55.391Z,4.00
2018-12-30T17:02:22.788Z,4.00
2018-12-30T17:04:50.235Z,3.90
2018-12-30T17:07:17.686Z,3.90
2018-12-30T17:09:45.208Z,3.90
2018-12-30T17:12:12.768Z,3.90
2018-12-30T17:14:40.294Z,3.90
2018-12-30T17:17:07.711Z,3.90
2018-12-30T17:19:35.101Z,3.80
2018-12-30T17:22:02.572Z,3.80
2018-12-30T17:24:29.959Z,3.80
2018-12-30T17:26:58.466Z,3.70
2018-12-30T17:29:26.203Z,3.70
2018-12-30T17:31:53.622Z,3.70
2018-12-30T17:34:21.037Z,3.60
2018-12-30T17:36:48.465Z,3.60
2018-12-30T17:39:15.837Z,3.60
2018-12-30T17:41:43.227Z,3.60
2018-12-30T17:44:10.704Z,3.60
2018-12-30T17:46:38.103Z,3.60
2018-12-30T17:49:05.503Z,3.60
2018-12-30T17:51:33.174Z,3.60
2018-12-30T17:54:00.633Z,3.50
2018-12-30T17:56:28.040Z,3.60
2018-12-30T17:58:55.479Z,3.60
2018-12-30T18:01:22.860Z,3.60
2018-12-30T18:03:50.281Z,3.50
2018-12-30T18:06:17.756Z,3.60
2018-12-30T18:08:45.147Z,3.60
2018-12-30T18:11:12.563Z,3.70
2018-12-30T18:13:40.327Z,3.60
2018-12-30T18:16:08.225Z,3.60
2018-12-30T18:18:35.619Z,3.70
2018-12-30T18:21:03.191Z,3.60
2018-12-30T18:23:30.567Z,3.60
2018-12-30T18:25:58.711Z,3.70
2018-12-30T18:28:26.525Z,3.60
2018-12-30T18:30:53.927Z,3.70
2018-12-30T18:33:21.326Z,3.70
2018-12-30T18:35:48.834Z,3.70
2018-12-30T18:38:16.344Z,3.70
2018-12-30T18:40:43.918Z,3.70
2018-12-30T18:43:11.379Z,3.60
2018-12-30T18:45:38.776Z,3.60
2018-12-30T18:48:06.185Z,3.60
2018-12-30T18:50:33.655Z,3.60
2018-12-30T18:53:01.083Z,3.60
2018-12-30T18:55:29.068Z,3.60
2018-12-30T18:57:56.553Z,3.60
2018-12-30T19:00:23.948Z,3.60
2018-12-30T19:02:51.353Z,3.60
2018-12-30T19:05:18.793Z,3.60
2018-12-30T19:07:46.190Z,3.60
2018-12-30T19:10:13.654Z,3.50
2018-12-30T19:12:41.543Z,3.60
2018-12-30T19:15:09.203Z,3.60
2018-12-30T19:17:36.770Z,3.50
2018-12-30T19:20:04.661Z,3.60
2018-12-30T19:22:32.062Z,3.60
2018-12-30T19:24:59.574Z,3.60
2018-12-30T19:27:26.985Z,3.60
2018-12-30T19:29:54.481Z,3.60
2018-12-30T19:32:21.879Z,3.60
2018-12-30T19:34:49.334Z,3.60
2018-12-30T19:37:16.751Z,3.60
2018-12-30T19:39:47.820Z,3.60
2018-12-30T19:42:15.530Z,3.60
2018-12-30T19:44:42.938Z,3.50
2018-12-30T19:47:10.981Z,3.50
2018-12-30T19:49:38.420Z,3.50
2018-12-30T19:52:05.950Z,3.60
2018-12-30T19:54:33.540Z,3.60
2018-12-30T19:57:01.201Z,3.60
2018-12-30T19:59:28.838Z,3.60
2018-12-30T20:01:56.342Z,3.50
2018-12-30T20:04:24.644Z,3.50
2018-12-30T20:06:52.198Z,3.50
2018-12-30T20:09:19.933Z,3.50
2018-12-30T20:11:47.880Z,3.60
2018-12-30T20:14:15.839Z,3.50
2018-12-30T20:16:44.066Z,3.50
2018-12-30T20:19:11.519Z,3.50
2018-12-30T20:21:39.125Z,3.50
2018-12-30T20:24:06.735Z,3.40
2018-12-30T20:26:34.583Z,3.40
2018-12-30T20:29:02.269Z,3.40
2018-12-30T20:31:29.732Z,3.40
2018-12-30T20:33:57.529Z,3.50
2018-12-30T20:36:25.273Z,3.40
2018-12-30T20:38:53.029Z,3.40
2018-12-30T20:41:20.849Z,3.40
2018-12-30T20:43:48.531Z,3.40
2018-12-30T20:46:16.029Z,3.40
2018-12-30T20:48:43.591Z,3.40
2018-12-30T20:51:11.198Z,3.40
2018-12-30T20:53:38.945Z,3.40
2018-12-30T20:56:07.009Z,3.50
2018-12-30T20:58:34.484Z,3.50
2018-12-30T21:01:01.984Z,3.60
2018-12-30T21:03:29.438Z,3.50
2018-12-30T21:05:56.934Z,3.60
2018-12-30T21:08:24.340Z,3.60
2018-12-30T21:10:52.598Z,3.70
2018-12-30T21:13:20.060Z,3.60
2018-12-30T21:15:47.665Z,3.60
2018-12-30T21:18:15.275Z,3.70
2018-12-30T21:20:42.717Z,3.70
2018-12-30T21:23:10.118Z,3.70
2018-12-30T21:25:37.565Z,3.80
2018-12-30T21:28:04.963Z,3.80
2018-12-30T21:30:32.462Z,3.80
2018-12-30T21:33:00.006Z,3.90
2018-12-30T21:35:27.465Z,3.90
2018-12-30T21:37:54.822Z,4.00
2018-12-30T21:40:22.292Z,4.00
2018-12-30T21:42:49.679Z,4.10
2018-12-30T21:45:17.076Z,4.10
2018-12-30T21:47:45.950Z,4.10
2018-12-30T21:50:13.484Z,4.20
2018-12-30T21:52:40.893Z,4.20
2018-12-30T21:55:08.345Z,4.30
2018-12-30T21:57:35.743Z,4.40
2018-12-30T22:00:03.463Z,4.50
2018-12-30T22:02:31.039Z,4.60
2018-12-30T22:04:58.436Z,4.60
2018-12-30T22:07:25.854Z,4.60
2018-12-30T22:09:53.319Z,4.60
2018-12-30T22:12:20.719Z,4.50
2018-12-30T22:14:48.231Z,4.50
2018-12-30T22:17:16.111Z,4.50
2018-12-30T22:19:43.493Z,4.50
2018-12-30T22:22:10.899Z,4.50
2018-12-30T22:24:38.423Z,4.40
2018-12-30T22:27:05.839Z,4.40
2018-12-30T22:29:33.238Z,4.40
2018-12-30T22:32:00.686Z,4.40
2018-12-30T22:34:28.077Z,4.40
2018-12-30T22:36:55.484Z,4.40
2018-12-30T22:39:22.924Z,4.40
2018-12-30T22:41:50.335Z,4.40
2018-12-30T22:44:17.715Z,4.40
2018-12-30T22:46:45.145Z,4.40
2018-12-30T22:49:12.532Z,4.40
2018-12-30T22:51:39.920Z,4.40
2018-12-30T22:54:07.445Z,4.40
2018-12-30T22:56:34.756Z,4.40
2018-12-30T22:59:02.184Z,4.40
2018-12-30T23:01:34.818Z,4.30
2018-12-30T23:04:02.199Z,4.30
2018-12-30T23:06:29.596Z,4.30
2018-12-30T23:08:57.100Z,4.30
2018-12-30T23:11:24.501Z,4.30
2018-12-30T23:13:51.907Z,4.30
2018-12-30T23:16:19.348Z,4.30
2018-12-30T23:18:47.378Z,4.40
2018-12-30T23:21:14.782Z,4.40
2018-12-30T23:23:42.299Z,4.30
2018-12-30T23:26:09.697Z,4.30
2018-12-30T23:28:37.106Z,4.30
2018-12-30T23:31:04.533Z,4.30
2018-12-30T23:33:31.929Z,4.20
2018-12-30T23:35:59.315Z,4.20
2018-12-30T23:38:26.893Z,4.20
2018-12-30T23:40:54.294Z,4.20
2018-12-30T23:43:21.691Z,4.20
2018-12-30T23:45:49.220Z,4.10
2018-12-30T23:48:16.599Z,4.10
2018-12-30T23:50:43.987Z,4.10
2018-12-30T23:53:11.816Z,4.10
2018-12-30T23:55:39.200Z,4.10
2018-12-30T23:58:06.596Z,4.10
